FDMS/MTS METAR and TAF weather

Enter ICAO airport designator
Station Type Date Time Source
FDMS METAR 2019/09/20 09:00 UTC NOAA

FDMS 200900Z 08005KT 26/15 Q1022 NOSIG


Station Type Date Time Source
FDMS Decoded METAR 2019/09/20 09:00 UTC NOAA

Manzini / Matsapa Airport, Swaziland (FDMS) 26-32S 031-18E
Sep 20, 2019 - 05:00 AM EDT / 2019.09.20 0900 UTC
Wind: from the E (080 degrees) at 6 MPH (5 KT):0
Temperature: 78 F (26 C)
Dew Point: 59 F (15 C)
Relative Humidity: 50%
Pressure (altimeter): 30.18 in. Hg (1022 hPa)
ob: FDMS 200900Z 08005KT 26/15 Q1022 NOSIG
cycle: 9

Station Type Date Time Source
FDMS TAF 2019/06/03 12:35 UTC NOAA

TAF FDMS 031000Z 0312/0418 12006KT CAVOK

Example: see airport list